createdAt,value
2022-10-16T00:02:36.123Z,1.00
2022-10-16T00:07:38.263Z,0.73
2022-10-16T00:12:40.356Z,1.05
2022-10-16T00:17:42.485Z,1.62
2022-10-16T00:22:44.962Z,0.88
2022-10-16T00:27:46.995Z,0.80
2022-10-16T00:32:49.079Z,1.00
2022-10-16T00:37:51.220Z,0.80
2022-10-16T00:42:53.262Z,1.02
2022-10-16T00:47:56.727Z,0.95
2022-10-16T00:52:59.983Z,1.42
2022-10-16T00:58:02.034Z,1.37
2022-10-16T01:03:23.059Z,1.45
2022-10-16T01:08:46.063Z,1.42
2022-10-16T01:13:54.160Z,1.13
2022-10-16T01:19:06.671Z,1.08
2022-10-16T01:24:28.080Z,1.07
2022-10-16T01:29:49.555Z,1.40
2022-10-16T01:35:11.956Z,0.80
2022-10-16T01:40:17.337Z,0.82
2022-10-16T01:45:20.821Z,0.95
2022-10-16T01:50:24.847Z,0.80
2022-10-16T01:55:34.142Z,0.70
2022-10-16T02:00:40.705Z,1.00
2022-10-16T02:05:57.535Z,0.93
2022-10-16T02:11:02.299Z,0.55
2022-10-16T02:16:04.648Z,1.00
2022-10-16T02:21:26.357Z,1.25
2022-10-16T02:26:42.571Z,1.50
2022-10-16T02:31:50.363Z,1.50
2022-10-16T02:36:54.043Z,3.33
2022-10-16T02:41:56.160Z,1.80
2022-10-16T02:46:58.218Z,2.00
2022-10-16T02:52:00.404Z,1.95
2022-10-16T02:57:02.512Z,1.12
2022-10-16T03:02:04.952Z,1.40
2022-10-16T03:07:07.069Z,1.20
2022-10-16T03:12:09.207Z,1.40
2022-10-16T03:17:11.329Z,0.98
2022-10-16T03:22:13.559Z,1.20
2022-10-16T03:27:15.738Z,1.48
2022-10-16T03:32:17.868Z,1.33
2022-10-16T03:37:19.916Z,0.50
2022-10-16T03:42:22.136Z,0.88
2022-10-16T03:47:25.002Z,0.75
2022-10-16T03:52:27.728Z,1.17
2022-10-16T03:57:30.091Z,0.57
2022-10-16T04:02:32.388Z,1.10
2022-10-16T04:07:34.847Z,0.60
2022-10-16T04:12:37.168Z,0.62
2022-10-16T04:17:39.246Z,1.33
2022-10-16T04:22:42.490Z,0.70
2022-10-16T04:27:46.085Z,0.70
2022-10-16T04:32:52.877Z,0.62
2022-10-16T04:37:55.027Z,0.80
2022-10-16T04:42:57.072Z,0.95
2022-10-16T04:48:00.178Z,1.48
2022-10-16T04:53:02.450Z,0.95
2022-10-16T04:58:04.697Z,0.60
2022-10-16T05:03:09.505Z,1.25
2022-10-16T05:08:12.823Z,0.62
2022-10-16T05:13:14.942Z,1.00
2022-10-16T05:18:17.843Z,1.35
2022-10-16T05:23:19.915Z,1.12
2022-10-16T05:28:22.687Z,1.08
2022-10-16T05:33:26.572Z,1.00
2022-10-16T05:38:28.658Z,1.45
2022-10-16T05:43:30.975Z,0.70
2022-10-16T05:48:33.966Z,2.28
2022-10-16T05:53:38.159Z,4.95
2022-10-16T05:58:45.043Z,3.08
2022-10-16T06:03:47.512Z,1.73
2022-10-16T06:08:50.464Z,5.25
2022-10-16T06:13:54.315Z,3.97
2022-10-16T06:18:57.018Z,1.77
2022-10-16T06:29:01.771Z,0.85
2022-10-16T06:34:05.699Z,1.05
2022-10-16T06:39:08.305Z,1.58
2022-10-16T06:44:10.887Z,1.08
2022-10-16T06:49:12.965Z,2.62
2022-10-16T06:54:17.320Z,1.80
2022-10-16T06:59:19.677Z,1.62
2022-10-16T07:04:21.685Z,1.27
2022-10-16T07:09:23.767Z,1.37
2022-10-16T07:14:26.105Z,1.98
2022-10-16T07:19:31.883Z,2.22
2022-10-16T07:24:35.730Z,2.10
2022-10-16T07:29:38.072Z,8.75
2022-10-16T07:34:40.392Z,3.60
2022-10-16T07:39:42.516Z,2.78
2022-10-16T07:44:44.591Z,3.42
2022-10-16T07:49:46.649Z,3.25
2022-10-16T07:54:48.805Z,2.50
2022-10-16T07:59:51.033Z,3.12
2022-10-16T08:04:53.113Z,3.10
2022-10-16T08:09:57.374Z,1.70
2022-10-16T08:14:59.524Z,1.87
2022-10-16T08:20:02.590Z,3.12
2022-10-16T08:25:04.849Z,2.60
2022-10-16T08:30:07.793Z,2.03
2022-10-16T08:35:11.424Z,2.55
2022-10-16T08:40:28.281Z,2.45
2022-10-16T08:45:45.337Z,1.52
2022-10-16T08:50:50.486Z,1.60
2022-10-16T08:55:54.592Z,2.30
2022-10-16T09:01:02.681Z,1.27
2022-10-16T09:06:27.909Z,2.12
2022-10-16T09:11:57.026Z,2.92
2022-10-16T09:22:17.472Z,2.17
2022-10-16T09:27:19.545Z,6.90
2022-10-16T09:32:23.139Z,5.37
2022-10-16T09:37:26.811Z,2.78
2022-10-16T09:42:34.516Z,2.87
2022-10-16T09:47:40.935Z,2.95
2022-10-16T09:52:43.084Z,3.72
2022-10-16T10:01:15.511Z,2.53
2022-10-16T10:06:25.812Z,2.42
2022-10-16T10:11:50.640Z,1.67
2022-10-16T10:17:03.554Z,1.98
2022-10-16T10:22:23.868Z,1.87
2022-10-16T10:27:46.826Z,1.65
2022-10-16T10:33:26.327Z,2.10
2022-10-16T10:38:46.505Z,2.45
2022-10-16T10:44:15.544Z,2.72
2022-10-16T10:49:29.350Z,3.40
2022-10-16T10:54:42.836Z,1.95
2022-10-16T10:59:55.216Z,2.08
2022-10-16T11:05:18.848Z,1.83
2022-10-16T11:10:29.783Z,2.00
2022-10-16T11:15:36.199Z,1.87
2022-10-16T11:20:43.571Z,2.15
2022-10-16T11:25:47.507Z,1.05
2022-10-16T11:31:00.241Z,1.67
2022-10-16T11:36:14.143Z,1.65
2022-10-16T11:41:43.052Z,2.05
2022-10-16T11:47:28.658Z,1.45
2022-10-16T11:52:35.570Z,1.90
2022-10-16T11:57:46.682Z,1.70
2022-10-16T12:03:01.130Z,2.50
2022-10-16T12:08:17.518Z,1.77
2022-10-16T12:13:38.135Z,1.45
2022-10-16T12:18:47.687Z,1.30
2022-10-16T12:23:57.525Z,1.37
2022-10-16T12:29:35.283Z,1.73
2022-10-16T12:34:44.491Z,1.67
2022-10-16T12:39:47.612Z,3.28
2022-10-16T12:44:49.986Z,1.67
2022-10-16T12:49:54.703Z,1.48
2022-10-16T12:55:00.150Z,1.67
2022-10-16T13:00:13.679Z,1.65
2022-10-16T13:05:41.293Z,1.50
2022-10-16T13:11:10.270Z,1.05
2022-10-16T13:16:43.394Z,8.20
2022-10-16T13:21:54.233Z,2.78
2022-10-16T13:27:13.312Z,1.60
2022-10-16T13:32:16.847Z,2.00
2022-10-16T13:37:22.030Z,1.65
2022-10-16T13:42:28.726Z,1.90
2022-10-16T13:47:31.185Z,1.95
2022-10-16T13:52:33.894Z,1.75
2022-10-16T14:02:41.108Z,1.50
2022-10-16T14:07:43.987Z,1.50
2022-10-16T14:12:46.681Z,1.92
2022-10-16T14:17:52.856Z,1.92
2022-10-16T14:23:30.013Z,1.17
2022-10-16T14:28:32.246Z,2.62
2022-10-16T14:33:35.282Z,2.10
2022-10-16T14:38:40.228Z,4.57
2022-10-16T14:43:46.400Z,2.33
2022-10-16T14:48:54.830Z,2.05
2022-10-16T14:54:00.123Z,2.25
2022-10-16T14:59:03.903Z,2.55
2022-10-16T15:04:06.087Z,2.28
2022-10-16T15:09:08.287Z,4.75
2022-10-16T15:19:21.741Z,2.08
2022-10-16T15:24:23.940Z,1.20
2022-10-16T15:29:26.019Z,1.83
2022-10-16T15:34:28.109Z,2.97
2022-10-16T15:39:30.271Z,7.87
2022-10-16T15:44:32.604Z,9.55
2022-10-16T15:54:36.745Z,3.55
2022-10-16T15:59:38.867Z,3.83
2022-10-16T16:04:44.815Z,1.95
2022-10-16T16:09:47.213Z,1.80
2022-10-16T16:14:50.022Z,2.95
2022-10-16T16:19:52.509Z,2.30
2022-10-16T16:24:54.682Z,2.10
2022-10-16T16:29:57.196Z,2.42
2022-10-16T16:40:01.180Z,2.95
2022-10-16T16:45:03.395Z,3.37
2022-10-16T16:50:07.771Z,3.60
2022-10-16T16:55:09.929Z,2.78
2022-10-16T17:00:12.520Z,2.87
2022-10-16T17:10:16.648Z,8.27
2022-10-16T17:15:18.828Z,9.27
2022-10-16T17:20:21.440Z,9.20
2022-10-16T17:25:25.135Z,12.32
2022-10-16T17:30:27.700Z,9.48
2022-10-16T17:35:29.912Z,8.73
2022-10-16T17:40:32.315Z,7.03
2022-10-16T17:45:38.491Z,8.13
2022-10-16T17:50:42.848Z,8.25
2022-10-16T17:55:44.871Z,6.95
2022-10-16T18:00:47.343Z,4.47
2022-10-16T18:05:49.452Z,2.33
2022-10-16T18:10:51.604Z,1.58
2022-10-16T18:16:20.469Z,1.00
2022-10-16T18:21:23.865Z,1.55
2022-10-16T18:26:26.444Z,1.90
2022-10-16T18:31:29.021Z,2.15
2022-10-16T18:36:33.145Z,2.30
2022-10-16T18:41:37.096Z,3.70
2022-10-16T18:46:39.744Z,3.70
2022-10-16T18:51:44.135Z,3.22
2022-10-16T18:56:46.195Z,2.35
2022-10-16T19:01:49.998Z,2.92
2022-10-16T19:06:53.925Z,2.28
2022-10-16T19:11:57.423Z,2.60
2022-10-16T19:16:59.702Z,2.55
2022-10-16T19:22:11.819Z,2.10
2022-10-16T19:27:13.991Z,2.30
2022-10-16T19:32:16.062Z,2.78
2022-10-16T19:37:18.269Z,3.08
2022-10-16T19:42:20.430Z,2.22
2022-10-16T19:47:23.298Z,1.35
2022-10-16T19:52:25.938Z,1.12
2022-10-16T20:02:30.467Z,0.60
2022-10-16T20:07:34.761Z,1.02
2022-10-16T20:12:37.356Z,2.12
2022-10-16T20:17:39.496Z,1.30
2022-10-16T20:22:41.575Z,1.17
2022-10-16T20:27:43.696Z,1.23
2022-10-16T20:32:46.166Z,1.50
2022-10-16T20:37:49.007Z,1.50
2022-10-16T20:42:51.061Z,2.20
2022-10-16T20:47:53.138Z,1.70
2022-10-16T20:52:55.325Z,1.87
2022-10-16T20:57:57.556Z,2.20
2022-10-16T21:03:00.131Z,3.42
2022-10-16T21:08:02.260Z,3.78
2022-10-16T21:13:04.410Z,2.70
2022-10-16T21:18:06.514Z,2.40
2022-10-16T21:23:08.569Z,3.17
2022-10-16T21:28:10.604Z,3.10
2022-10-16T21:33:13.149Z,3.50
2022-10-16T21:38:15.285Z,2.80
2022-10-16T21:43:17.328Z,2.90
2022-10-16T21:48:19.688Z,3.00
2022-10-16T21:53:21.863Z,2.92
2022-10-16T21:58:23.941Z,1.20
2022-10-16T22:03:26.000Z,0.90
2022-10-16T22:08:28.347Z,0.57
2022-10-16T22:13:30.533Z,1.15
2022-10-16T22:18:33.985Z,1.30
2022-10-16T22:23:36.603Z,1.23
2022-10-16T22:28:40.161Z,1.50
2022-10-16T22:33:43.074Z,1.08
2022-10-16T22:43:48.801Z,1.02
2022-10-16T22:48:51.276Z,1.17
2022-10-16T22:53:53.721Z,1.87
2022-10-16T22:58:55.817Z,3.00
2022-10-16T23:03:58.342Z,2.45
2022-10-16T23:09:01.862Z,2.37
2022-10-16T23:14:03.913Z,0.80
2022-10-16T23:19:06.040Z,1.47
2022-10-16T23:24:08.600Z,2.30
2022-10-16T23:29:10.773Z,3.47
2022-10-16T23:34:12.925Z,2.95
2022-10-16T23:39:15.360Z,2.67
2022-10-16T23:44:17.469Z,1.85
2022-10-16T23:49:19.504Z,3.08
2022-10-16T23:54:21.923Z,2.93
2022-10-16T23:59:23.969Z,2.97
